Time;durP1;ratioP1;P1;durP2;ratioP2;P2;SDS_P1;SDS_P2;PMS_P1;PMS_P2;Temp;Humidity;BMP_temperature;BMP_pressure;BME280_temperature;BME280_humidity;BME280_pressure;Samples;Min_cycle;Max_cycle;Signal;HPM_P1;HPM_P2
2024/01/15 00:01:29;;;;;;;0.10;0.10;;;4.20;99.90;;;;;;5021875;28;20532;-69
2024/01/15 00:03:55;;;;;;;0.35;0.35;;;4.20;99.90;;;;;;5028087;28;20128;-69
2024/01/15 00:06:20;;;;;;;0.10;0.10;;;4.30;99.90;;;;;;5028778;28;20129;-69
2024/01/15 00:08:46;;;;;;;0.77;0.73;;;4.30;99.90;;;;;;5022846;28;20046;-69
2024/01/15 00:11:12;;;;;;;0.10;0.10;;;4.30;99.90;;;;;;5027883;28;20075;-69
2024/01/15 00:13:37;;;;;;;1.80;1.50;;;4.30;99.90;;;;;;5019558;28;20129;-69
2024/01/15 00:16:05;;;;;;;1.55;1.45;;;4.30;99.90;;;;;;5020029;28;20060;-69
2024/01/15 00:18:31;;;;;;;0.75;0.75;;;4.30;99.90;;;;;;5027149;28;20041;-69
2024/01/15 00:20:56;;;;;;;0.10;0.10;;;4.30;99.90;;;;;;5026166;28;20108;-69
2024/01/15 00:23:22;;;;;;;17.17;5.10;;;4.30;99.90;;;;;;5023882;28;20049;-69
2024/01/15 00:25:48;;;;;;;2.15;1.95;;;4.30;99.90;;;;;;5021880;28;20630;-69
2024/01/15 00:28:14;;;;;;;0.30;0.30;;;4.30;99.90;;;;;;5025972;28;20065;-69
2024/01/15 00:30:39;;;;;;;0.30;0.30;;;4.30;99.90;;;;;;5026324;28;20077;-69
2024/01/15 00:33:05;;;;;;;0.10;0.10;;;4.30;99.90;;;;;;5028110;28;20056;-69
2024/01/15 00:35:30;;;;;;;0.10;0.10;;;4.30;99.90;;;;;;5018096;28;20045;-69
2024/01/15 00:37:56;;;;;;;0.10;0.10;;;4.40;99.90;;;;;;5022262;28;20049;-70
2024/01/15 00:40:21;;;;;;;0.13;0.13;;;4.50;99.90;;;;;;5024984;28;20393;-69
2024/01/15 00:42:47;;;;;;;3.63;2.55;;;4.50;99.90;;;;;;5028198;28;20041;-69
2024/01/15 00:45:13;;;;;;;0.10;0.10;;;4.50;99.90;;;;;;5023085;28;20119;-69
2024/01/15 00:47:38;;;;;;;0.10;0.10;;;4.30;99.90;;;;;;5021256;28;20500;-69
2024/01/15 00:50:04;;;;;;;0.10;0.10;;;4.10;99.90;;;;;;5023161;28;20510;-69
2024/01/15 00:52:30;;;;;;;0.10;0.10;;;3.90;99.90;;;;;;5023710;28;20044;-70
2024/01/15 00:54:56;;;;;;;0.10;0.10;;;3.70;99.90;;;;;;5017088;28;20192;-69
2024/01/15 00:57:21;;;;;;;0.10;0.10;;;3.60;99.90;;;;;;5022597;28;20041;-69
2024/01/15 00:59:48;;;;;;;0.57;0.57;;;3.60;99.90;;;;;;5017454;28;20626;-69
2024/01/15 01:02:13;;;;;;;0.10;0.10;;;3.50;99.90;;;;;;5021985;28;20049;-69
2024/01/15 01:04:40;;;;;;;0.25;0.25;;;3.50;99.90;;;;;;5022672;28;20042;-69
2024/01/15 01:07:05;;;;;;;0.17;0.17;;;3.50;99.90;;;;;;5043755;28;20397;-69
2024/01/15 01:09:31;;;;;;;0.10;0.10;;;3.60;99.90;;;;;;5021672;28;20042;-69
2024/01/15 01:11:56;;;;;;;0.10;0.10;;;3.50;99.90;;;;;;5019276;28;20053;-69
2024/01/15 01:14:22;;;;;;;0.10;0.10;;;3.60;99.90;;;;;;5022897;28;20049;-69
2024/01/15 01:16:48;;;;;;;1.08;1.00;;;3.60;99.90;;;;;;5019164;28;20045;-69
2024/01/15 01:19:13;;;;;;;8.10;1.45;;;3.60;99.90;;;;;;5027041;28;20485;-69
2024/01/15 01:21:39;;;;;;;0.10;0.10;;;3.70;99.90;;;;;;5029104;28;20053;-69
2024/01/15 01:24:05;;;;;;;0.65;0.65;;;3.70;99.90;;;;;;5023494;28;20033;-69
2024/01/15 01:26:31;;;;;;;17.13;3.22;;;3.70;99.90;;;;;;5030493;28;20037;-69
2024/01/15 01:28:56;;;;;;;0.10;0.10;;;3.70;99.90;;;;;;5025243;28;20555;-69
2024/01/15 01:31:23;;;;;;;0.10;0.10;;;3.70;99.90;;;;;;5029562;28;20500;-69
2024/01/15 01:33:49;;;;;;;0.10;0.10;;;3.70;99.90;;;;;;5027345;28;20045;-69
2024/01/15 01:36:15;;;;;;;1.95;1.85;;;3.70;99.90;;;;;;5030983;28;20040;-69
2024/01/15 01:38:41;;;;;;;0.20;0.20;;;3.80;99.90;;;;;;5028342;28;20053;-69
2024/01/15 01:41:07;;;;;;;0.10;0.10;;;3.80;99.90;;;;;;5023404;28;20048;-69
2024/01/15 01:43:33;;;;;;;0.15;0.15;;;3.80;99.90;;;;;;5026350;28;20576;-69
2024/01/15 01:46:01;;;;;;;0.90;0.90;;;3.90;99.90;;;;;;5031971;28;20037;-69
2024/01/15 01:48:27;;;;;;;0.93;0.93;;;3.90;99.90;;;;;;5027405;28;20049;-69
2024/01/15 01:50:58;;;;;;;0.10;0.10;;;3.90;99.90;;;;;;5026570;28;20392;-69
2024/01/15 01:53:26;;;;;;;0.20;0.20;;;3.90;99.90;;;;;;5030927;28;20042;-69
2024/01/15 01:55:53;;;;;;;0.20;0.20;;;3.90;99.90;;;;;;5027947;28;20054;-69
2024/01/15 01:58:19;;;;;;;0.13;0.13;;;3.90;99.90;;;;;;5023206;28;20041;-69
2024/01/15 02:00:47;;;;;;;0.10;0.10;;;3.90;99.90;;;;;;5031315;28;20045;-69
2024/01/15 02:03:12;;;;;;;0.90;0.90;;;3.90;99.90;;;;;;5021357;28;20481;-69
2024/01/15 02:05:40;;;;;;;0.10;0.10;;;3.90;99.90;;;;;;5025519;28;20092;-69
2024/01/15 02:08:06;;;;;;;0.45;0.45;;;3.90;99.90;;;;;;5031862;28;20045;-69
2024/01/15 02:10:32;;;;;;;0.10;0.10;;;3.90;99.90;;;;;;5030451;28;20034;-69
2024/01/15 02:12:57;;;;;;;0.25;0.25;;;3.90;99.90;;;;;;5024300;28;20053;-69
2024/01/15 02:15:23;;;;;;;0.10;0.10;;;3.90;99.90;;;;;;5032220;28;20045;-69
2024/01/15 02:18:05;;;;;;;0.35;0.35;;;3.80;99.90;;;;;;5019264;28;20080;-69
2024/01/15 02:20:32;;;;;;;3.55;1.60;;;3.80;99.90;;;;;;5026056;28;20037;-68
2024/01/15 02:23:11;;;;;;;18.90;2.70;;;3.80;99.90;;;;;;5027294;28;20052;-69
2024/01/15 02:25:43;;;;;;;0.10;0.10;;;3.80;99.90;;;;;;5024893;28;20052;-69
2024/01/15 02:28:10;;;;;;;0.10;0.10;;;3.70;99.90;;;;;;5030262;28;20045;-69
2024/01/15 02:30:39;;;;;;;0.65;0.65;;;3.70;99.90;;;;;;5022371;28;20037;-69
2024/01/15 02:33:04;;;;;;;0.20;0.20;;;3.70;99.90;;;;;;5026744;28;20374;-69
2024/01/15 02:35:30;;;;;;;0.10;0.10;;;3.70;99.90;;;;;;5015606;28;20128;-69
2024/01/15 02:37:56;;;;;;;0.10;0.10;;;3.70;99.90;;;;;;5028859;28;20124;-69
2024/01/15 02:40:21;;;;;;;0.28;0.28;;;3.70;99.90;;;;;;5024882;28;20128;-69
2024/01/15 02:42:47;;;;;;;0.10;0.10;;;3.70;99.90;;;;;;5027538;28;20048;-69
2024/01/15 02:45:12;;;;;;;2.20;2.10;;;3.70;99.90;;;;;;5018406;28;20544;-69
2024/01/15 02:47:38;;;;;;;0.10;0.10;;;3.60;99.90;;;;;;5027588;28;20045;-69
2024/01/15 02:50:04;;;;;;;0.10;0.10;;;3.50;99.90;;;;;;5029582;28;20087;-69
2024/01/15 02:52:30;;;;;;;0.10;0.10;;;3.60;99.90;;;;;;5025304;28;20084;-69
2024/01/15 02:54:55;;;;;;;0.10;0.10;;;3.60;99.90;;;;;;5025527;28;20041;-69
2024/01/15 02:57:21;;;;;;;0.40;0.40;;;3.60;99.90;;;;;;5028887;28;20124;-69
2024/01/15 02:59:46;;;;;;;0.22;0.22;;;3.60;99.90;;;;;;5029045;28;20084;-69
2024/01/15 03:02:12;;;;;;;1.83;1.67;;;3.70;99.90;;;;;;5028421;28;20092;-69
2024/01/15 03:04:37;;;;;;;0.10;0.10;;;3.60;99.90;;;;;;5028924;28;20128;-69
2024/01/15 03:07:03;;;;;;;0.10;0.10;;;3.60;99.90;;;;;;5024594;28;20488;-69
2024/01/15 03:09:28;;;;;;;0.10;0.10;;;3.60;99.90;;;;;;5024029;28;20037;-69
2024/01/15 03:11:54;;;;;;;0.10;0.10;;;3.60;99.90;;;;;;5030049;28;20110;-69
2024/01/15 03:14:20;;;;;;;0.28;0.28;;;3.60;99.90;;;;;;5021899;28;20037;-69
2024/01/15 03:16:45;;;;;;;0.15;0.15;;;3.60;99.90;;;;;;5022769;28;20048;-68
2024/01/15 03:19:11;;;;;;;0.40;0.40;;;3.50;99.90;;;;;;5029732;28;20056;-69
2024/01/15 03:21:37;;;;;;;0.30;0.30;;;3.50;99.90;;;;;;5021330;28;20080;-69
2024/01/15 03:24:02;;;;;;;0.10;0.10;;;3.60;99.90;;;;;;5027474;28;20091;-69
2024/01/15 03:26:28;;;;;;;0.35;0.35;;;3.50;99.90;;;;;;5028653;28;20045;-69
2024/01/15 03:28:54;;;;;;;0.10;0.10;;;3.50;99.90;;;;;;5024950;28;20042;-69
2024/01/15 03:31:19;;;;;;;0.10;0.10;;;3.50;99.90;;;;;;5024115;28;20025;-69
2024/01/15 03:33:45;;;;;;;0.10;0.10;;;3.50;99.90;;;;;;5019991;28;20591;-69
2024/01/15 03:36:10;;;;;;;0.10;0.10;;;3.50;99.90;;;;;;5027707;28;20072;-69
2024/01/15 03:38:40;;;;;;;0.10;0.10;;;3.60;99.90;;;;;;5027989;28;20100;-69
2024/01/15 03:41:06;;;;;;;0.05;0.05;;;3.50;99.90;;;;;;5016021;28;20417;-69
2024/01/15 03:43:31;;;;;;;0.10;0.10;;;3.60;99.90;;;;;;5022030;28;20056;-69
2024/01/15 03:45:57;;;;;;;0.63;0.63;;;3.60;99.90;;;;;;5029789;28;20053;-69
2024/01/15 03:48:22;;;;;;;10.57;1.45;;;3.50;99.90;;;;;;5029289;28;20049;-69
2024/01/15 03:50:48;;;;;;;0.10;0.10;;;3.50;99.90;;;;;;5019754;28;20053;-69
2024/01/15 03:53:13;;;;;;;0.10;0.10;;;3.50;99.90;;;;;;5028838;28;20084;-69
2024/01/15 03:55:39;;;;;;;0.10;0.10;;;3.50;99.90;;;;;;5028450;28;20512;-69
2024/01/15 03:58:05;;;;;;;0.40;0.40;;;3.50;99.90;;;;;;5027523;28;20408;-69
2024/01/15 04:00:30;;;;;;;0.10;0.10;;;3.50;99.90;;;;;;5023237;28;20280;-70
2024/01/15 04:02:56;;;;;;;0.10;0.10;;;3.50;99.90;;;;;;5025626;28;20049;-69
2024/01/15 04:05:21;;;;;;;0.50;0.43;;;3.40;99.90;;;;;;5026925;28;20045;-69
2024/01/15 04:07:47;;;;;;;0.10;0.10;;;3.50;99.90;;;;;;5026949;28;20052;-69
2024/01/15 04:10:12;;;;;;;0.10;0.10;;;3.40;99.90;;;;;;5025696;28;20052;-69
2024/01/15 04:12:38;;;;;;;0.52;0.52;;;3.40;99.90;;;;;;5023319;28;20412;-69
2024/01/15 04:15:04;;;;;;;0.10;0.10;;;3.40;99.90;;;;;;5026924;28;20069;-69
2024/01/15 04:17:29;;;;;;;0.55;0.55;;;3.40;99.90;;;;;;5028221;28;20579;-70
2024/01/15 04:19:55;;;;;;;0.20;0.20;;;3.30;99.90;;;;;;5026519;28;20046;-69
2024/01/15 04:22:21;;;;;;;2.17;0.85;;;3.20;99.90;;;;;;5023523;28;20044;-69
2024/01/15 04:24:46;;;;;;;0.10;0.10;;;3.20;99.90;;;;;;5024032;28;20096;-69
2024/01/15 04:27:12;;;;;;;0.10;0.10;;;3.30;99.90;;;;;;5028812;28;20524;-69
2024/01/15 04:29:39;;;;;;;0.10;0.10;;;3.20;99.90;;;;;;5023722;28;20728;-69
2024/01/15 04:32:05;;;;;;;0.32;0.32;;;3.30;99.90;;;;;;5022010;28;20128;-69
2024/01/15 04:34:30;;;;;;;0.10;0.10;;;3.20;99.90;;;;;;5027283;28;20132;-69
2024/01/15 04:36:56;;;;;;;0.10;0.10;;;3.30;99.90;;;;;;5020051;28;20108;-69
2024/01/15 04:39:22;;;;;;;0.10;0.10;;;3.30;99.90;;;;;;5026460;28;20502;-69
2024/01/15 04:41:47;;;;;;;0.10;0.10;;;3.40;99.90;;;;;;5028706;28;20053;-69
2024/01/15 04:44:13;;;;;;;1.45;1.00;;;3.40;99.90;;;;;;5025161;28;20053;-69
2024/01/15 04:46:39;;;;;;;0.38;0.38;;;3.40;99.90;;;;;;5023466;28;20132;-69
2024/01/15 04:49:04;;;;;;;0.10;0.10;;;3.50;99.90;;;;;;5022427;28;20525;-69
2024/01/15 04:51:30;;;;;;;0.30;0.30;;;3.50;99.90;;;;;;5026352;28;20045;-69
2024/01/15 04:53:56;;;;;;;1.85;1.45;;;3.50;99.90;;;;;;5027963;28;20461;-69
2024/01/15 04:56:21;;;;;;;0.57;0.57;;;3.50;99.90;;;;;;5036038;28;20052;-69
2024/01/15 04:58:47;;;;;;;0.10;0.10;;;3.50;99.90;;;;;;5015169;28;20053;-69
2024/01/15 05:01:12;;;;;;;0.15;0.15;;;3.40;99.90;;;;;;5020284;28;20049;-69
2024/01/15 05:03:38;;;;;;;0.10;0.10;;;3.40;99.90;;;;;;5028004;28;20049;-69
2024/01/15 05:06:04;;;;;;;0.10;0.10;;;3.40;99.90;;;;;;5023047;28;20604;-69
2024/01/15 05:08:29;;;;;;;0.10;0.10;;;3.40;99.90;;;;;;5017775;28;20040;-69
2024/01/15 05:10:55;;;;;;;14.43;3.05;;;3.20;99.90;;;;;;5024891;28;20460;-69
2024/01/15 05:13:20;;;;;;;0.15;0.15;;;3.20;99.90;;;;;;5031513;28;20059;-69
2024/01/15 05:15:46;;;;;;;0.20;0.20;;;3.10;99.90;;;;;;5022048;28;20045;-69
2024/01/15 05:18:11;;;;;;;0.38;0.38;;;3.20;99.90;;;;;;5026010;28;20045;-69
2024/01/15 05:20:37;;;;;;;1.88;1.58;;;3.20;99.90;;;;;;5023975;28;20141;-69
2024/01/15 05:23:03;;;;;;;0.10;0.10;;;3.10;99.90;;;;;;5025184;28;20053;-69
2024/01/15 05:25:28;;;;;;;0.10;0.10;;;3.20;99.90;;;;;;5021434;28;20040;-69
2024/01/15 05:27:54;;;;;;;0.10;0.10;;;3.30;99.90;;;;;;5026445;28;20041;-69
2024/01/15 05:30:19;;;;;;;4.20;2.22;;;3.30;99.90;;;;;;5019933;28;20038;-69
2024/01/15 05:32:45;;;;;;;0.10;0.10;;;3.30;99.90;;;;;;5023105;28;20041;-69
2024/01/15 05:35:10;;;;;;;0.10;0.10;;;3.30;99.90;;;;;;5022636;28;20037;-69
2024/01/15 05:37:36;;;;;;;0.10;0.10;;;3.40;99.90;;;;;;5024191;28;20124;-69
2024/01/15 05:40:04;;;;;;;0.15;0.15;;;3.40;99.90;;;;;;5027281;28;20049;-69
2024/01/15 05:42:31;;;;;;;0.10;0.10;;;3.40;99.90;;;;;;5017475;28;20128;-69
2024/01/15 05:44:59;;;;;;;0.10;0.10;;;3.40;99.90;;;;;;5024155;28;20041;-69
2024/01/15 05:47:24;;;;;;;0.10;0.10;;;3.40;99.90;;;;;;5027090;28;20044;-69
2024/01/15 05:49:50;;;;;;;0.25;0.25;;;3.40;99.90;;;;;;5022200;28;20045;-69
2024/01/15 05:52:16;;;;;;;0.10;0.10;;;3.40;99.90;;;;;;5020600;28;20037;-69
2024/01/15 05:54:41;;;;;;;0.10;0.10;;;3.30;99.90;;;;;;5024855;28;20045;-69
2024/01/15 05:57:07;;;;;;;1.95;1.85;;;3.40;99.90;;;;;;5020424;28;20401;-68
2024/01/15 05:59:35;;;;;;;2.92;2.08;;;3.30;99.90;;;;;;5021344;28;20041;-68
2024/01/15 06:02:01;;;;;;;0.10;0.10;;;3.40;99.90;;;;;;5020489;28;20124;-69
2024/01/15 06:04:27;;;;;;;0.10;0.10;;;3.40;99.90;;;;;;5021690;28;20168;-69
2024/01/15 06:06:52;;;;;;;0.15;0.15;;;3.40;99.90;;;;;;5029608;28;20049;-69
2024/01/15 06:09:18;;;;;;;0.10;0.10;;;3.40;99.90;;;;;;5030436;28;20563;-68
2024/01/15 06:11:43;;;;;;;0.45;0.45;;;3.40;99.90;;;;;;5031269;28;20041;-69
2024/01/15 06:14:09;;;;;;;0.10;0.10;;;3.40;99.90;;;;;;5025255;28;20042;-69
2024/01/15 06:16:34;;;;;;;0.10;0.10;;;3.30;99.90;;;;;;5028445;28;20045;-69
2024/01/15 06:19:00;;;;;;;0.10;0.10;;;3.20;99.90;;;;;;5029687;28;20088;-69
2024/01/15 06:21:25;;;;;;;0.10;0.10;;;3.10;99.90;;;;;;5027527;28;20053;-69
2024/01/15 06:23:51;;;;;;;0.10;0.10;;;3.10;99.90;;;;;;5018117;28;20046;-69
2024/01/15 06:26:17;;;;;;;0.10;0.10;;;3.00;99.90;;;;;;5029008;28;20050;-69
2024/01/15 06:28:42;;;;;;;0.10;0.10;;;3.00;99.90;;;;;;5030581;28;20037;-69
2024/01/15 06:31:08;;;;;;;0.10;0.10;;;2.90;99.90;;;;;;5030872;28;20042;-69
2024/01/15 06:33:33;;;;;;;0.10;0.10;;;2.90;99.90;;;;;;5019703;28;20077;-69
2024/01/15 06:35:59;;;;;;;0.10;0.10;;;2.90;99.90;;;;;;5028792;28;20067;-69
2024/01/15 06:38:25;;;;;;;0.10;0.10;;;2.90;99.90;;;;;;5050238;28;20048;-70
2024/01/15 06:40:51;;;;;;;1.55;1.38;;;2.90;99.90;;;;;;5028019;28;20045;-69
2024/01/15 06:43:17;;;;;;;0.10;0.10;;;2.90;99.90;;;;;;5022515;28;20095;-69
2024/01/15 06:45:46;;;;;;;0.10;0.10;;;2.80;99.90;;;;;;5028362;28;20060;-69
2024/01/15 06:48:16;;;;;;;0.13;0.13;;;2.80;99.90;;;;;;5018972;28;20557;-69
2024/01/15 06:50:42;;;;;;;0.10;0.10;;;2.80;99.90;;;;;;5027777;28;20080;-69
2024/01/15 06:53:07;;;;;;;0.10;0.10;;;2.90;99.90;;;;;;5030360;28;20068;-69
2024/01/15 06:55:33;;;;;;;0.10;0.10;;;2.90;99.90;;;;;;5019805;28;20042;-69
2024/01/15 06:57:58;;;;;;;0.10;0.10;;;2.90;99.90;;;;;;5023359;28;20045;-69
2024/01/15 07:00:24;;;;;;;0.10;0.10;;;2.90;99.90;;;;;;5027947;28;20056;-68
2024/01/15 07:02:49;;;;;;;0.10;0.10;;;2.90;99.90;;;;;;5025061;28;20041;-69
2024/01/15 07:05:15;;;;;;;0.10;0.10;;;3.00;99.90;;;;;;5027756;28;20041;-69
2024/01/15 07:07:41;;;;;;;0.10;0.10;;;3.10;99.90;;;;;;5029244;28;20030;-69
2024/01/15 07:10:07;;;;;;;0.10;0.10;;;3.10;99.90;;;;;;5022316;28;20056;-69
2024/01/15 07:12:33;;;;;;;0.80;0.80;;;3.10;99.90;;;;;;5028740;28;20512;-69
2024/01/15 07:14:59;;;;;;;0.10;0.10;;;3.10;99.90;;;;;;5029996;28;20077;-68
2024/01/15 07:17:24;;;;;;;0.10;0.10;;;3.10;99.90;;;;;;5028624;28;20076;-68
2024/01/15 07:19:50;;;;;;;0.10;0.10;;;3.10;99.90;;;;;;5014773;28;20033;-68
2024/01/15 07:22:17;;;;;;;2.85;2.65;;;3.10;99.90;;;;;;5024603;28;20389;-69
2024/01/15 07:24:43;;;;;;;0.45;0.45;;;3.20;99.90;;;;;;5029574;28;20120;-68
2024/01/15 07:27:09;;;;;;;0.77;0.77;;;3.30;99.90;;;;;;5029069;28;20049;-69
2024/01/15 07:29:38;;;;;;;0.85;0.85;;;3.30;99.90;;;;;;5022047;28;20183;-68
2024/01/15 07:32:04;;;;;;;0.10;0.10;;;3.20;99.90;;;;;;5025864;28;20056;-68
2024/01/15 07:34:30;;;;;;;0.10;0.10;;;3.30;99.90;;;;;;5022202;28;20045;-69
2024/01/15 07:36:56;;;;;;;6.55;1.30;;;3.20;99.90;;;;;;5030358;28;20378;-68
2024/01/15 07:39:24;;;;;;;0.10;0.10;;;3.10;99.90;;;;;;5032124;28;20423;-68
2024/01/15 07:41:50;;;;;;;0.10;0.10;;;3.10;99.90;;;;;;5026357;28;20050;-69
2024/01/15 07:44:16;;;;;;;0.10;0.10;;;3.00;99.90;;;;;;5025179;28;20397;-68
2024/01/15 07:46:48;;;;;;;0.10;0.10;;;3.00;99.90;;;;;;5027982;28;20037;-68
2024/01/15 07:49:14;;;;;;;0.10;0.10;;;2.90;99.90;;;;;;5043227;28;20053;-69
2024/01/15 07:51:43;;;;;;;0.10;0.10;;;2.90;99.90;;;;;;5017857;28;20050;-69
2024/01/15 07:54:09;;;;;;;0.10;0.10;;;2.80;99.90;;;;;;5029094;28;20060;-69
2024/01/15 07:56:59;;;;;;;0.20;0.20;;;2.80;99.90;;;;;;5021498;28;20044;-69
2024/01/15 07:59:28;;;;;;;0.20;0.20;;;2.80;99.90;;;;;;5031712;28;20449;-69
2024/01/15 08:01:54;;;;;;;0.10;0.10;;;2.70;99.90;;;;;;5025770;28;20206;-69
2024/01/15 08:04:20;;;;;;;0.10;0.10;;;2.70;99.90;;;;;;5024166;28;20526;-69
2024/01/15 08:06:46;;;;;;;0.10;0.10;;;2.70;99.90;;;;;;5019425;28;20049;-68
2024/01/15 08:09:12;;;;;;;0.10;0.10;;;2.60;99.90;;;;;;5019731;28;20046;-69
2024/01/15 08:11:41;;;;;;;0.10;0.10;;;2.70;99.90;;;;;;5023030;28;20054;-69
2024/01/15 08:14:07;;;;;;;0.10;0.10;;;2.70;99.90;;;;;;5018182;28;20042;-69
2024/01/15 08:16:33;;;;;;;0.10;0.10;;;2.80;99.90;;;;;;5025344;28;20056;-69
2024/01/15 08:18:59;;;;;;;0.10;0.10;;;2.90;99.90;;;;;;5026378;28;20045;-69
2024/01/15 08:21:24;;;;;;;0.10;0.10;;;2.90;99.90;;;;;;5021142;28;20072;-69
2024/01/15 08:23:50;;;;;;;0.13;0.13;;;3.00;99.90;;;;;;5021405;28;20503;-69
2024/01/15 08:26:16;;;;;;;0.10;0.10;;;3.00;99.90;;;;;;5022666;28;20034;-69
2024/01/15 08:28:41;;;;;;;0.10;0.10;;;3.00;99.90;;;;;;5015842;28;20465;-69
2024/01/15 08:31:07;;;;;;;0.85;0.85;;;3.00;99.90;;;;;;5026540;28;20711;-69
2024/01/15 08:33:32;;;;;;;0.30;0.30;;;3.00;99.90;;;;;;5029091;28;20124;-69
2024/01/15 08:35:58;;;;;;;0.10;0.10;;;3.00;99.90;;;;;;5027344;28;20099;-69
2024/01/15 08:38:23;;;;;;;0.10;0.10;;;3.10;99.90;;;;;;5023164;28;20045;-69
2024/01/15 08:40:49;;;;;;;0.10;0.10;;;3.10;99.90;;;;;;5035507;28;20509;-68
2024/01/15 08:43:15;;;;;;;0.10;0.10;;;3.10;99.90;;;;;;5025777;28;20099;-67
2024/01/15 08:45:41;;;;;;;0.63;0.63;;;3.10;99.90;;;;;;5016800;28;20424;-68
2024/01/15 08:48:06;;;;;;;0.10;0.10;;;3.20;99.90;;;;;;5029419;28;20083;-68
2024/01/15 08:50:32;;;;;;;0.10;0.10;;;3.30;99.90;;;;;;5027517;28;20390;-68
2024/01/15 08:52:58;;;;;;;0.10;0.10;;;3.40;99.90;;;;;;5019396;28;20102;-68
2024/01/15 08:55:24;;;;;;;0.10;0.10;;;3.40;99.90;;;;;;5041804;28;20045;-68
2024/01/15 08:57:50;;;;;;;0.10;0.10;;;3.50;99.90;;;;;;5024509;28;20052;-68
2024/01/15 09:00:16;;;;;;;0.10;0.10;;;3.60;99.90;;;;;;5025760;28;20053;-68
2024/01/15 09:02:42;;;;;;;0.10;0.10;;;3.70;99.90;;;;;;5028219;28;20069;-69
2024/01/15 09:05:08;;;;;;;0.10;0.10;;;3.70;99.90;;;;;;5022933;28;20614;-70
2024/01/15 09:07:34;;;;;;;0.20;0.20;;;3.70;99.90;;;;;;5017990;28;20061;-70
2024/01/15 09:09:59;;;;;;;0.10;0.10;;;3.70;99.90;;;;;;5031726;28;20587;-70
2024/01/15 09:12:25;;;;;;;0.10;0.10;;;3.70;99.90;;;;;;5029475;28;20071;-70
2024/01/15 09:14:51;;;;;;;0.45;0.45;;;3.70;99.90;;;;;;5016506;28;20042;-70
2024/01/15 09:17:17;;;;;;;0.10;0.10;;;3.70;99.90;;;;;;5027684;28;20119;-70
2024/01/15 09:19:44;;;;;;;0.10;0.10;;;3.70;99.90;;;;;;5027731;28;20041;-70
2024/01/15 09:22:09;;;;;;;0.10;0.10;;;3.70;99.90;;;;;;5021689;28;20057;-70
2024/01/15 09:24:36;;;;;;;0.10;0.10;;;3.70;99.90;;;;;;5020502;28;20036;-70
2024/01/15 09:27:02;;;;;;;0.20;0.20;;;3.70;99.90;;;;;;5019827;28;20049;-71
2024/01/15 09:29:28;;;;;;;0.10;0.10;;;3.80;99.90;;;;;;5028365;28;20068;-70
2024/01/15 09:31:54;;;;;;;0.10;0.10;;;3.70;99.90;;;;;;5026861;28;20061;-71
2024/01/15 09:34:19;;;;;;;0.10;0.10;;;3.70;99.90;;;;;;5028069;28;20037;-70
2024/01/15 09:36:45;;;;;;;0.10;0.10;;;3.70;99.90;;;;;;5019758;28;20145;-70
2024/01/15 09:39:11;;;;;;;0.10;0.10;;;3.70;99.90;;;;;;5023637;28;20064;-70
2024/01/15 09:41:40;;;;;;;0.10;0.10;;;3.70;99.90;;;;;;5023354;28;20501;-71
2024/01/15 09:44:07;;;;;;;0.10;0.10;;;3.70;99.90;;;;;;5032717;28;20053;-71
2024/01/15 09:46:35;;;;;;;0.20;0.20;;;3.60;99.90;;;;;;5028952;28;20103;-71
2024/01/15 09:49:01;;;;;;;0.10;0.10;;;3.70;99.90;;;;;;5023184;28;20037;-71
2024/01/15 09:51:31;;;;;;;0.10;0.10;;;3.60;99.90;;;;;;5027427;28;20211;-71
2024/01/15 09:53:57;;;;;;;0.10;0.10;;;3.60;99.90;;;;;;5027880;28;20405;-71
2024/01/15 09:56:24;;;;;;;2.10;0.95;;;3.60;99.90;;;;;;5046147;28;20362;-71
2024/01/15 09:58:52;;;;;;;0.10;0.10;;;3.70;99.90;;;;;;5021386;28;20053;-71
2024/01/15 10:01:20;;;;;;;0.10;0.10;;;3.70;99.90;;;;;;5027051;28;20045;-71
2024/01/15 10:03:46;;;;;;;0.47;0.47;;;3.70;99.90;;;;;;5031484;28;20056;-71
2024/01/15 10:06:19;;;;;;;0.10;0.10;;;3.80;99.90;;;;;;5023407;28;20049;-71
2024/01/15 10:08:49;;;;;;;0.20;0.20;;;3.80;99.90;;;;;;5032433;28;20393;-71
2024/01/15 10:11:16;;;;;;;0.10;0.10;;;3.80;99.90;;;;;;5028673;28;20049;-70
2024/01/15 10:13:46;;;;;;;0.10;0.10;;;3.60;99.90;;;;;;5031579;28;20049;-71
2024/01/15 10:16:12;;;;;;;0.10;0.10;;;3.40;99.90;;;;;;5033609;28;20071;-70
2024/01/15 10:18:39;;;;;;;0.10;0.10;;;3.30;99.90;;;;;;5022220;28;20065;-70
2024/01/15 10:21:07;;;;;;;0.10;0.10;;;3.20;99.90;;;;;;5034927;28;20484;-70
2024/01/15 10:23:33;;;;;;;0.10;0.10;;;3.20;99.90;;;;;;5035311;28;20112;-70
2024/01/15 10:25:58;;;;;;;0.10;0.10;;;3.20;99.90;;;;;;5023930;28;20572;-70
2024/01/15 10:28:27;;;;;;;0.10;0.10;;;3.20;99.90;;;;;;5028078;28;20373;-70
2024/01/15 10:30:55;;;;;;;0.22;0.22;;;3.30;99.90;;;;;;5026290;28;20052;-70
2024/01/15 10:33:26;;;;;;;0.10;0.10;;;3.30;99.90;;;;;;5034805;28;20415;-69
2024/01/15 10:35:56;;;;;;;0.10;0.10;;;3.30;99.90;;;;;;5029500;28;20076;-70
2024/01/15 10:38:23;;;;;;;0.10;0.10;;;3.40;99.90;;;;;;5025423;28;20072;-69
2024/01/15 10:40:52;;;;;;;0.10;0.10;;;3.50;99.90;;;;;;5027066;28;20054;-71
2024/01/15 10:43:17;;;;;;;0.10;0.10;;;3.50;99.90;;;;;;5025346;28;20061;-71
2024/01/15 10:45:47;;;;;;;0.75;0.75;;;3.60;99.90;;;;;;5031290;28;20079;-71
2024/01/15 10:48:12;;;;;;;0.10;0.10;;;3.70;99.90;;;;;;5023278;28;20128;-71
2024/01/15 10:50:38;;;;;;;0.10;0.10;;;3.70;99.90;;;;;;5028789;28;20603;-72
2024/01/15 10:53:05;;;;;;;0.10;0.10;;;3.70;99.90;;;;;;5024997;28;20038;-71
2024/01/15 10:55:33;;;;;;;0.10;0.10;;;3.80;99.90;;;;;;5045312;28;20041;-72
2024/01/15 10:57:59;;;;;;;3.83;1.10;;;3.80;99.90;;;;;;5018781;28;20814;-72
2024/01/15 11:00:26;;;;;;;1.65;1.55;;;3.90;99.90;;;;;;5024586;28;20452;-71
2024/01/15 11:02:55;;;;;;;0.10;0.10;;;3.90;99.90;;;;;;5028988;28;20098;-71
2024/01/15 11:05:22;;;;;;;0.30;0.30;;;3.80;99.90;;;;;;5024878;28;20062;-71
2024/01/15 11:07:49;;;;;;;0.10;0.10;;;3.80;99.90;;;;;;5023111;28;20107;-71
2024/01/15 11:10:46;;;;;;;0.45;0.45;;;3.90;99.90;;;;;;5033019;28;20121;-71
2024/01/15 11:13:39;;;;;;;1.55;1.02;;;4.00;99.90;;;;;;5026980;28;20045;-71
2024/01/15 11:16:07;;;;;;;0.10;0.10;;;4.00;99.90;;;;;;5029098;28;20393;-71
2024/01/15 11:19:00;;;;;;;0.10;0.10;;;4.00;99.90;;;;;;5029859;28;20088;-72
2024/01/15 11:21:27;;;;;;;0.20;0.20;;;3.90;99.90;;;;;;5020135;28;20468;-71
2024/01/15 11:23:57;;;;;;;0.35;0.35;;;3.60;99.90;;;;;;5027638;28;20045;-71
2024/01/15 11:26:36;;;;;;;0.10;0.10;;;3.40;99.90;;;;;;5029617;28;20037;-71
2024/01/15 11:29:03;;;;;;;0.10;0.10;;;3.20;99.90;;;;;;5015609;28;20508;-71
2024/01/15 11:31:41;;;;;;;0.10;0.10;;;3.00;99.90;;;;;;5028794;28;20046;-71
2024/01/15 11:34:08;;;;;;;0.10;0.10;;;2.90;99.90;;;;;;5020117;28;20045;-71
2024/01/15 11:36:48;;;;;;;0.10;0.10;;;2.90;99.90;;;;;;5024843;28;20485;-71
2024/01/15 11:39:44;;;;;;;0.15;0.15;;;2.90;99.90;;;;;;5027302;28;20045;-71
2024/01/15 11:42:11;;;;;;;0.10;0.10;;;2.90;99.90;;;;;;5019427;28;20060;-71
2024/01/15 11:44:40;;;;;;;0.10;0.10;;;2.90;99.90;;;;;;5023895;28;20077;-71
2024/01/15 11:47:08;;;;;;;0.10;0.10;;;2.90;99.90;;;;;;5028106;28;20502;-71
2024/01/15 11:49:58;;;;;;;0.10;0.10;;;3.00;99.90;;;;;;5023923;28;20045;-71
2024/01/15 11:52:24;;;;;;;0.10;0.10;;;3.00;99.90;;;;;;5026421;28;20583;-71
2024/01/15 11:54:59;;;;;;;0.10;0.10;;;3.10;99.90;;;;;;5020146;28;20175;-71
2024/01/15 11:57:52;;;;;;;0.10;0.10;;;3.10;99.90;;;;;;5023784;28;20061;-71
2024/01/15 12:00:18;;;;;;;1.13;1.13;;;3.20;99.90;;;;;;5023665;28;20122;-71
2024/01/15 12:02:46;;;;;;;0.10;0.10;;;3.30;99.90;;;;;;5026240;28;20656;-71
2024/01/15 12:05:15;;;;;;;1.17;0.65;;;3.70;99.90;;;;;;5018329;28;20045;-71
2024/01/15 12:07:44;;;;;;;0.10;0.10;;;3.80;99.90;;;;;;5026690;28;20045;-71
2024/01/15 12:10:18;;;;;;;0.10;0.10;;;4.10;99.90;;;;;;5029348;28;20045;-71
2024/01/15 12:13:05;;;;;;;0.40;0.40;;;4.00;99.90;;;;;;5014745;28;20037;-71
2024/01/15 12:15:31;;;;;;;0.10;0.10;;;4.10;99.90;;;;;;5020422;28;20056;-71
2024/01/15 12:18:02;;;;;;;0.10;0.10;;;4.00;99.90;;;;;;5018758;28;20045;-71
2024/01/15 12:20:29;;;;;;;0.10;0.10;;;4.30;99.90;;;;;;5028145;28;20045;-71
2024/01/15 12:22:55;;;;;;;0.10;0.10;;;4.70;99.90;;;;;;5027642;28;20049;-71
2024/01/15 12:25:21;;;;;;;0.10;0.10;;;4.80;99.90;;;;;;5020812;28;20416;-70
2024/01/15 12:27:47;;;;;;;0.10;0.10;;;4.60;99.90;;;;;;5015968;28;20041;-70
2024/01/15 12:30:15;;;;;;;0.10;0.10;;;4.60;99.90;;;;;;5023958;28;20040;-70
2024/01/15 12:32:44;;;;;;;0.13;0.13;;;4.50;99.90;;;;;;5025267;28;20046;-70
2024/01/15 12:35:13;;;;;;;0.10;0.10;;;4.70;99.90;;;;;;5020202;28;20042;-70
2024/01/15 12:37:43;;;;;;;0.10;0.10;;;4.70;99.90;;;;;;5026480;28;20530;-70
2024/01/15 12:40:10;;;;;;;0.10;0.10;;;4.60;99.90;;;;;;5020286;28;20071;-70
2024/01/15 12:42:42;;;;;;;0.73;0.73;;;4.60;99.90;;;;;;5027129;28;20038;-70
2024/01/15 12:45:09;;;;;;;0.10;0.10;;;4.60;99.90;;;;;;5022445;28;20556;-71
2024/01/15 12:47:35;;;;;;;0.13;0.13;;;4.60;99.90;;;;;;5032587;28;20382;-71
2024/01/15 12:50:01;;;;;;;0.10;0.10;;;4.50;99.90;;;;;;5020667;28;20115;-71
2024/01/15 12:52:28;;;;;;;0.10;0.10;;;4.40;99.90;;;;;;5022421;28;20033;-71
2024/01/15 12:54:53;;;;;;;0.10;0.10;;;4.40;99.90;;;;;;5013594;28;20107;-71
2024/01/15 12:57:19;;;;;;;0.15;0.15;;;4.40;99.90;;;;;;5025886;28;20045;-71